Hilton Head, South Carolina
Current Conditions -  °F | °C
As of 2:55 AM on Saturday 25 Oct 2014 (Local Time) from KHXD Reporting Station
NA  
Wind Chill: 52°   Ceiling: NA
Heat Index: 52°   Visibility: NA
Dew Point: 52°   Wind: 3mph
Humidity: 100%   Direction: 290°WNW
Pressure: 30"   Gusts: NA
Location:  32.2222°N, 80.7332°W
Report Text: KHXD 250655Z AUTO 29003KT 11/11 A3000 RMK AO2 P0000
Loading
Personal Weather Stations






























Interactive Weather Map
Tropical Storm Tracking
New forecast layout! Learn more

10-Day Weather Forecast

Advertisements
Track Severe Weather on mobile